Time;durP1;ratioP1;P1;durP2;ratioP2;P2;SDS_P1;SDS_P2;PMS_P1;PMS_P2;Temp;Humidity;BMP_temperature;BMP_pressure;BME280_temperature;BME280_humidity;BME280_pressure;Samples;Min_cycle;Max_cycle;Signal;HPM_P1;HPM_P2
2021/09/01 00:01:06;;;;;;;9.40;6.82;;;;;;;;;;5045407;28;20435;-82
2021/09/01 00:03:32;;;;;;;9.43;6.22;;;;;;;;;;5040717;28;20193;-82
2021/09/01 00:05:58;;;;;;;10.97;6.83;;;;;;;;;;5059201;28;20174;-82
2021/09/01 00:08:24;;;;;;;11.27;7.03;;;;;;;;;;5057059;28;20467;-82
2021/09/01 00:10:50;;;;;;;12.13;6.53;;;;;;;;;;5051165;28;20224;-82
2021/09/01 00:13:17;;;;;;;10.82;6.28;;;;;;;;;;5045873;28;20208;-82
2021/09/01 00:15:43;;;;;;;10.95;6.60;;;;;;;;;;5043604;28;20245;-81
2021/09/01 00:18:09;;;;;;;9.52;6.78;;;;;;;;;;5046480;28;20184;-82
2021/09/01 00:20:35;;;;;;;10.52;5.00;;;;;;;;;;5046909;28;20224;-82
2021/09/01 00:23:01;;;;;;;8.00;5.72;;;;;;;;;;5046134;28;20185;-82
2021/09/01 00:25:27;;;;;;;10.17;6.57;;;;;;;;;;5046621;28;20649;-82
2021/09/01 00:27:53;;;;;;;11.35;6.65;;;;;;;;;;5043675;28;20446;-82
2021/09/01 00:30:19;;;;;;;10.20;5.90;;;;;;;;;;5042202;28;20284;-82
2021/09/01 00:32:45;;;;;;;13.93;6.00;;;;;;;;;;5047057;28;20508;-82
2021/09/01 00:35:11;;;;;;;8.65;6.05;;;;;;;;;;5046311;28;20522;-82
2021/09/01 00:37:37;;;;;;;15.48;7.13;;;;;;;;;;5046085;28;20186;-82
2021/09/01 00:40:04;;;;;;;10.70;6.20;;;;;;;;;;5046697;28;20196;-82
2021/09/01 00:42:30;;;;;;;9.55;5.70;;;;;;;;;;5056244;28;20216;-82
2021/09/01 00:44:56;;;;;;;7.50;5.47;;;;;;;;;;5046882;28;20178;-82
2021/09/01 00:47:22;;;;;;;9.23;6.53;;;;;;;;;;5045977;28;20432;-82
2021/09/01 00:49:50;;;;;;;9.05;6.63;;;;;;;;;;5045740;28;20531;-82
2021/09/01 00:52:16;;;;;;;10.68;6.95;;;;;;;;;;5045428;28;20213;-82
2021/09/01 00:54:42;;;;;;;9.90;6.45;;;;;;;;;;5041499;28;20193;-82
2021/09/01 00:57:08;;;;;;;10.37;7.00;;;;;;;;;;5044259;28;20166;-82
2021/09/01 00:59:35;;;;;;;11.77;6.80;;;;;;;;;;5058107;28;20446;-82
2021/09/01 01:02:02;;;;;;;8.85;6.45;;;;;;;;;;5049043;28;20186;-82
2021/09/01 01:04:29;;;;;;;11.50;7.00;;;;;;;;;;5046469;28;20241;-82
2021/09/01 01:06:56;;;;;;;14.30;6.10;;;;;;;;;;5044671;28;20185;-82
2021/09/01 01:09:22;;;;;;;9.45;6.22;;;;;;;;;;5058229;28;20257;-82
2021/09/01 01:12:01;;;;;;;11.10;6.73;;;;;;;;;;5046612;28;20193;-82
2021/09/01 01:14:27;;;;;;;7.90;6.65;;;;;;;;;;5044171;28;20436;-82
2021/09/01 01:16:53;;;;;;;10.23;7.07;;;;;;;;;;5045895;28;20189;-82
2021/09/01 01:19:20;;;;;;;8.88;6.45;;;;;;;;;;5042377;28;20221;-82
2021/09/01 01:21:46;;;;;;;7.65;6.68;;;;;;;;;;5060637;28;20189;-82
2021/09/01 01:24:12;;;;;;;7.90;6.40;;;;;;;;;;5046725;28;20173;-82
2021/09/01 01:26:38;;;;;;;9.48;6.63;;;;;;;;;;5049905;28;20177;-82
2021/09/01 01:29:08;;;;;;;9.32;6.50;;;;;;;;;;5049956;28;20189;-82
2021/09/01 01:31:36;;;;;;;10.10;5.75;;;;;;;;;;5047857;28;20196;-82
2021/09/01 01:34:02;;;;;;;12.15;7.20;;;;;;;;;;5061112;28;20242;-82
2021/09/01 01:36:28;;;;;;;11.00;6.93;;;;;;;;;;5044304;28;20186;-82
2021/09/01 01:38:54;;;;;;;13.07;7.13;;;;;;;;;;5050968;28;20782;-82
2021/09/01 01:41:20;;;;;;;12.27;9.40;;;;;;;;;;5049426;28;20440;-82
2021/09/01 01:43:47;;;;;;;9.13;7.65;;;;;;;;;;5047661;28;20186;-82
2021/09/01 01:46:13;;;;;;;11.07;8.88;;;;;;;;;;5047934;28;20267;-82
2021/09/01 01:48:39;;;;;;;14.13;8.75;;;;;;;;;;5046215;28;20613;-82
2021/09/01 01:51:05;;;;;;;13.18;8.90;;;;;;;;;;5049529;28;20205;-82
2021/09/01 01:53:32;;;;;;;16.60;8.75;;;;;;;;;;5048174;28;20185;-82
2021/09/01 01:55:58;;;;;;;15.00;9.15;;;;;;;;;;5049232;28;20277;-82
2021/09/01 01:58:24;;;;;;;14.05;9.65;;;;;;;;;;5049042;28;20641;-82
2021/09/01 02:00:50;;;;;;;13.38;9.05;;;;;;;;;;5047895;28;20659;-82
2021/09/01 02:03:16;;;;;;;12.18;9.85;;;;;;;;;;5047042;28;20178;-82
2021/09/01 02:05:42;;;;;;;11.65;9.07;;;;;;;;;;5061468;28;20183;-80
2021/09/01 02:08:08;;;;;;;14.47;10.40;;;;;;;;;;5054190;28;20220;-82
2021/09/01 02:10:34;;;;;;;12.35;8.60;;;;;;;;;;5056436;28;20495;-82
2021/09/01 02:13:00;;;;;;;16.00;10.40;;;;;;;;;;5043831;28;20174;-82
2021/09/01 02:15:27;;;;;;;16.27;10.90;;;;;;;;;;5059839;28;20179;-82
2021/09/01 02:17:53;;;;;;;14.18;10.20;;;;;;;;;;5049554;28;20178;-82
2021/09/01 02:20:19;;;;;;;13.95;10.35;;;;;;;;;;5057557;28;20240;-82
2021/09/01 02:22:47;;;;;;;11.93;9.60;;;;;;;;;;5053212;28;20185;-82
2021/09/01 02:25:13;;;;;;;14.82;11.65;;;;;;;;;;5047080;28;20934;-82
2021/09/01 02:27:40;;;;;;;14.30;10.60;;;;;;;;;;5043251;28;20186;-82
2021/09/01 02:30:07;;;;;;;19.33;12.30;;;;;;;;;;5063678;28;20242;-82
2021/09/01 02:32:33;;;;;;;17.00;9.65;;;;;;;;;;5048906;28;20174;-82
2021/09/01 02:34:59;;;;;;;17.92;12.20;;;;;;;;;;5048414;28;20182;-82
2021/09/01 02:37:24;;;;;;;17.20;12.20;;;;;;;;;;5047580;28;20197;-82
2021/09/01 02:39:51;;;;;;;14.98;11.18;;;;;;;;;;5045722;28;20437;-82
2021/09/01 02:42:17;;;;;;;18.50;13.32;;;;;;;;;;5044817;28;20192;-82
2021/09/01 02:44:43;;;;;;;15.48;12.10;;;;;;;;;;5048479;28;20260;-84
2021/09/01 02:47:09;;;;;;;14.00;11.43;;;;;;;;;;5048681;28;20591;-82
2021/09/01 02:49:35;;;;;;;17.80;12.77;;;;;;;;;;5052913;28;20519;-82
2021/09/01 02:52:01;;;;;;;14.23;12.25;;;;;;;;;;5054367;28;21666;-83
2021/09/01 02:54:27;;;;;;;18.50;12.32;;;;;;;;;;5037173;28;20194;-82
2021/09/01 02:56:53;;;;;;;16.10;12.40;;;;;;;;;;5064631;28;20166;-81
2021/09/01 02:59:19;;;;;;;18.08;12.52;;;;;;;;;;5047645;28;20451;-82
2021/09/01 03:01:45;;;;;;;19.67;13.00;;;;;;;;;;5048391;28;20177;-82
2021/09/01 03:04:11;;;;;;;20.73;14.27;;;;;;;;;;5047919;28;20235;-82
2021/09/01 03:06:37;;;;;;;15.13;11.03;;;;;;;;;;5043774;28;20932;-83
2021/09/01 03:09:03;;;;;;;16.13;11.13;;;;;;;;;;5048665;28;20435;-83
2021/09/01 03:11:29;;;;;;;13.93;10.68;;;;;;;;;;5047681;28;20209;-83
2021/09/01 03:13:55;;;;;;;12.10;9.93;;;;;;;;;;5047202;28;20204;-83
2021/09/01 03:16:21;;;;;;;14.40;11.40;;;;;;;;;;5047963;28;20177;-82
2021/09/01 03:18:47;;;;;;;15.40;13.00;;;;;;;;;;5043769;28;20209;-82
2021/09/01 03:21:13;;;;;;;15.80;11.90;;;;;;;;;;5044531;28;20417;-82
2021/09/01 03:23:39;;;;;;;14.77;11.20;;;;;;;;;;5047733;28;20795;-82
2021/09/01 03:26:06;;;;;;;13.80;11.38;;;;;;;;;;5047834;28;20556;-82
2021/09/01 03:28:32;;;;;;;19.23;11.07;;;;;;;;;;5046011;28;20189;-82
2021/09/01 03:30:58;;;;;;;18.57;11.47;;;;;;;;;;5057976;28;20455;-82
2021/09/01 03:33:24;;;;;;;15.55;12.23;;;;;;;;;;5043977;28;20437;-83
2021/09/01 03:35:50;;;;;;;17.10;11.40;;;;;;;;;;5057970;28;20169;-82
2021/09/01 03:38:16;;;;;;;16.08;10.70;;;;;;;;;;5053090;28;20644;-82
2021/09/01 03:40:42;;;;;;;14.15;11.15;;;;;;;;;;5054006;28;20185;-82
2021/09/01 03:43:09;;;;;;;13.95;9.85;;;;;;;;;;5057309;28;20212;-82
2021/09/01 03:45:36;;;;;;;15.90;10.82;;;;;;;;;;5041123;28;20660;-82
2021/09/01 03:48:02;;;;;;;17.80;11.85;;;;;;;;;;5064685;28;20199;-81
2021/09/01 03:50:28;;;;;;;17.40;10.88;;;;;;;;;;5054706;28;20199;-83
2021/09/01 03:52:54;;;;;;;14.37;11.00;;;;;;;;;;5051416;28;20221;-82
2021/09/01 03:55:20;;;;;;;15.80;10.50;;;;;;;;;;5044028;28;20997;-82
2021/09/01 03:57:48;;;;;;;18.23;12.95;;;;;;;;;;5044662;28;20967;-82
2021/09/01 04:00:14;;;;;;;17.13;11.30;;;;;;;;;;5060402;28;20173;-82
2021/09/01 04:02:40;;;;;;;16.55;12.32;;;;;;;;;;5046739;28;20209;-82
2021/09/01 04:05:06;;;;;;;16.25;11.80;;;;;;;;;;5046254;28;20192;-82
2021/09/01 04:07:32;;;;;;;13.55;10.18;;;;;;;;;;5046183;28;20193;-83
2021/09/01 04:09:58;;;;;;;19.98;11.85;;;;;;;;;;5045679;28;20234;-82
2021/09/01 04:12:24;;;;;;;17.63;12.63;;;;;;;;;;5041198;28;20233;-82
2021/09/01 04:14:51;;;;;;;18.03;10.73;;;;;;;;;;5047557;28;20166;-82
2021/09/01 04:17:17;;;;;;;14.35;11.65;;;;;;;;;;5045512;28;20436;-81
2021/09/01 04:19:43;;;;;;;20.13;12.50;;;;;;;;;;5043938;28;20229;-82
2021/09/01 04:22:09;;;;;;;16.70;12.10;;;;;;;;;;5046148;28;20474;-82
2021/09/01 04:24:35;;;;;;;16.00;11.80;;;;;;;;;;5041906;28;20182;-82
2021/09/01 04:27:01;;;;;;;16.70;12.20;;;;;;;;;;5047267;28;20420;-83
2021/09/01 04:29:27;;;;;;;17.42;12.05;;;;;;;;;;5071663;28;20230;-82
2021/09/01 04:31:53;;;;;;;19.40;13.03;;;;;;;;;;5051138;28;20242;-82
2021/09/01 04:34:19;;;;;;;19.20;13.82;;;;;;;;;;5044575;28;20435;-82
2021/09/01 04:36:45;;;;;;;24.33;14.63;;;;;;;;;;5042355;28;20210;-82
2021/09/01 04:39:11;;;;;;;19.10;14.60;;;;;;;;;;5043529;28;20432;-83
2021/09/01 04:41:37;;;;;;;19.03;13.60;;;;;;;;;;5047824;28;20435;-82
2021/09/01 04:44:03;;;;;;;20.43;14.60;;;;;;;;;;5045852;28;20499;-82
2021/09/01 04:46:29;;;;;;;19.27;14.07;;;;;;;;;;5043992;28;20826;-82
2021/09/01 04:48:55;;;;;;;20.53;14.43;;;;;;;;;;5043628;28;20257;-82
2021/09/01 04:51:21;;;;;;;20.47;14.87;;;;;;;;;;5042696;28;20463;-83
2021/09/01 04:53:47;;;;;;;20.73;14.20;;;;;;;;;;5046571;28;20431;-83
2021/09/01 04:56:13;;;;;;;23.23;13.33;;;;;;;;;;5044893;28;20506;-82
2021/09/01 04:58:39;;;;;;;18.50;13.43;;;;;;;;;;5049031;28;20435;-82
2021/09/01 05:01:05;;;;;;;21.80;14.67;;;;;;;;;;5055420;28;20471;-81
2021/09/01 05:03:30;;;;;;;20.67;14.30;;;;;;;;;;5040381;28;20486;-84
2021/09/01 05:05:56;;;;;;;20.17;14.23;;;;;;;;;;5046685;28;20612;-82
2021/09/01 05:08:22;;;;;;;18.63;13.93;;;;;;;;;;5044463;28;20464;-83
2021/09/01 05:10:48;;;;;;;22.10;14.32;;;;;;;;;;5045521;28;20479;-82
2021/09/01 05:13:14;;;;;;;24.20;16.73;;;;;;;;;;5045456;28;20173;-82
2021/09/01 05:15:41;;;;;;;20.30;14.68;;;;;;;;;;5041761;28;20436;-83
2021/09/01 05:18:07;;;;;;;22.65;14.80;;;;;;;;;;5044571;28;20204;-82
2021/09/01 05:20:37;;;;;;;22.10;14.37;;;;;;;;;;5045629;28;20217;-82
2021/09/01 05:23:05;;;;;;;20.40;15.18;;;;;;;;;;5043735;28;20437;-83
2021/09/01 05:25:36;;;;;;;19.95;15.40;;;;;;;;;;5044173;28;20182;-83
2021/09/01 05:28:03;;;;;;;20.40;14.20;;;;;;;;;;5040854;28;20190;-82
2021/09/01 05:30:30;;;;;;;23.48;15.32;;;;;;;;;;5055907;28;20197;-82
2021/09/01 05:32:57;;;;;;;19.35;15.45;;;;;;;;;;5047848;28;20188;-83
2021/09/01 05:35:23;;;;;;;21.08;15.48;;;;;;;;;;5045822;28;20209;-82
2021/09/01 05:37:49;;;;;;;21.30;14.32;;;;;;;;;;5044913;28;20209;-82
2021/09/01 05:40:15;;;;;;;21.02;15.05;;;;;;;;;;5043780;28;20188;-83
2021/09/01 05:42:41;;;;;;;20.48;16.00;;;;;;;;;;5040548;28;20189;-82
2021/09/01 05:45:08;;;;;;;22.50;14.68;;;;;;;;;;5045202;28;20178;-82
2021/09/01 05:47:34;;;;;;;25.35;14.38;;;;;;;;;;5046243;28;20545;-82
2021/09/01 05:50:01;;;;;;;21.57;15.70;;;;;;;;;;5045574;28;20229;-83
2021/09/01 05:52:27;;;;;;;21.33;14.90;;;;;;;;;;5044993;28;20432;-82
2021/09/01 05:54:56;;;;;;;20.75;15.55;;;;;;;;;;5042544;28;20255;-83
2021/09/01 05:57:36;;;;;;;24.20;14.30;;;;;;;;;;5057495;28;20251;-82
2021/09/01 06:00:06;;;;;;;24.40;15.63;;;;;;;;;;5051361;28;20189;-81
2021/09/01 06:02:51;;;;;;;21.77;14.57;;;;;;;;;;5044840;28;20213;-82
2021/09/01 06:05:18;;;;;;;21.35;14.93;;;;;;;;;;5044969;28;20178;-82
2021/09/01 06:07:48;;;;;;;22.30;15.40;;;;;;;;;;5048354;28;20190;-82
2021/09/01 06:10:17;;;;;;;20.83;15.43;;;;;;;;;;5044120;28;20234;-83
2021/09/01 06:12:47;;;;;;;21.65;16.27;;;;;;;;;;5059413;28;20174;-82
2021/09/01 06:15:13;;;;;;;24.40;14.02;;;;;;;;;;5047407;28;20170;-82
2021/09/01 06:17:39;;;;;;;21.02;15.43;;;;;;;;;;5048729;28;20269;-82
2021/09/01 06:20:05;;;;;;;18.23;14.23;;;;;;;;;;5057279;28;20283;-82
2021/09/01 06:22:31;;;;;;;22.60;14.80;;;;;;;;;;5055578;28;20428;-83
2021/09/01 06:24:57;;;;;;;17.83;13.20;;;;;;;;;;5056309;28;20253;-82
2021/09/01 06:27:23;;;;;;;23.93;15.37;;;;;;;;;;5059849;28;20218;-82
2021/09/01 06:29:49;;;;;;;19.20;13.40;;;;;;;;;;5049112;28;20567;-82
2021/09/01 06:32:15;;;;;;;24.27;14.30;;;;;;;;;;5049270;28;20900;-82
2021/09/01 06:34:41;;;;;;;19.70;14.15;;;;;;;;;;5047924;28;20637;-82
2021/09/01 06:37:07;;;;;;;22.92;13.77;;;;;;;;;;5043677;28;20180;-82
2021/09/01 06:39:33;;;;;;;22.30;13.30;;;;;;;;;;5059452;28;20178;-82
2021/09/01 06:41:59;;;;;;;19.25;13.73;;;;;;;;;;5049210;28;20421;-83
2021/09/01 06:44:25;;;;;;;22.48;13.85;;;;;;;;;;5047302;28;20192;-82
2021/09/01 06:46:51;;;;;;;18.23;13.03;;;;;;;;;;5048945;28;20197;-82
2021/09/01 06:49:17;;;;;;;16.90;12.93;;;;;;;;;;5046865;28;20435;-82
2021/09/01 06:51:43;;;;;;;21.13;14.70;;;;;;;;;;5045349;28;21069;-82
2021/09/01 06:54:09;;;;;;;20.83;13.17;;;;;;;;;;5044615;28;20459;-81
2021/09/01 06:56:35;;;;;;;14.67;12.27;;;;;;;;;;5049524;28;20643;-82
2021/09/01 06:59:01;;;;;;;20.47;12.57;;;;;;;;;;5045963;28;20462;-81
2021/09/01 07:01:27;;;;;;;20.30;12.73;;;;;;;;;;5047806;28;20441;-82
2021/09/01 07:03:54;;;;;;;21.85;15.30;;;;;;;;;;5045956;28;20436;-81
2021/09/01 07:06:20;;;;;;;17.38;13.82;;;;;;;;;;5045519;28;20201;-82
2021/09/01 07:08:46;;;;;;;18.75;14.23;;;;;;;;;;5048804;28;20174;-81
2021/09/01 07:11:12;;;;;;;23.38;12.90;;;;;;;;;;5046418;28;20198;-83
2021/09/01 07:13:38;;;;;;;19.83;13.45;;;;;;;;;;5047345;28;20182;-82
2021/09/01 07:16:06;;;;;;;20.88;13.15;;;;;;;;;;5047894;28;20192;-82
2021/09/01 07:18:32;;;;;;;18.33;13.85;;;;;;;;;;5056981;28;20201;-82
2021/09/01 07:20:58;;;;;;;22.10;12.50;;;;;;;;;;5049828;28;20236;-82
2021/09/01 07:23:24;;;;;;;21.73;13.23;;;;;;;;;;5047123;28;20491;-80
2021/09/01 07:25:50;;;;;;;17.73;11.90;;;;;;;;;;5046059;28;20460;-82
2021/09/01 07:28:16;;;;;;;18.75;13.10;;;;;;;;;;5047094;28;20439;-83
2021/09/01 07:30:42;;;;;;;17.00;12.13;;;;;;;;;;5042716;28;20206;-82
2021/09/01 07:33:08;;;;;;;21.05;13.35;;;;;;;;;;5047477;28;20423;-82
2021/09/01 07:35:34;;;;;;;18.10;13.57;;;;;;;;;;5048620;28;20620;-82
2021/09/01 07:38:00;;;;;;;19.60;12.30;;;;;;;;;;5047875;28;20196;-82
2021/09/01 07:40:26;;;;;;;16.77;13.17;;;;;;;;;;5047136;28;20451;-81
2021/09/01 07:42:52;;;;;;;20.25;12.32;;;;;;;;;;5044995;28;20451;-80
2021/09/01 07:45:18;;;;;;;24.20;13.07;;;;;;;;;;5043565;28;20173;-82
2021/09/01 07:47:52;;;;;;;18.08;12.05;;;;;;;;;;5061420;28;20173;-82
2021/09/01 07:50:19;;;;;;;22.10;14.07;;;;;;;;;;5049127;28;20544;-82
2021/09/01 07:52:45;;;;;;;18.30;12.32;;;;;;;;;;5045154;28;20177;-82
2021/09/01 07:55:11;;;;;;;17.75;12.68;;;;;;;;;;5046252;28;20184;-80
2021/09/01 07:57:37;;;;;;;17.45;12.40;;;;;;;;;;5041613;28;20273;-81
2021/09/01 08:00:04;;;;;;;17.80;11.60;;;;;;;;;;5048047;28;20174;-82
2021/09/01 08:02:30;;;;;;;16.50;12.15;;;;;;;;;;5058361;28;20206;-83
2021/09/01 08:04:56;;;;;;;17.17;12.03;;;;;;;;;;5056090;28;20200;-83
2021/09/01 08:07:22;;;;;;;12.77;10.10;;;;;;;;;;5045276;28;20432;-83
2021/09/01 08:09:48;;;;;;;15.37;11.83;;;;;;;;;;5042759;28;20210;-81
2021/09/01 08:12:14;;;;;;;14.40;10.97;;;;;;;;;;5061796;28;20475;-81
2021/09/01 08:14:40;;;;;;;15.07;11.00;;;;;;;;;;5047628;28;20419;-83
2021/09/01 08:17:06;;;;;;;18.60;11.63;;;;;;;;;;5045536;28;20456;-81
2021/09/01 08:19:32;;;;;;;16.48;11.55;;;;;;;;;;5046319;28;20776;-82
2021/09/01 08:21:58;;;;;;;19.80;11.37;;;;;;;;;;5044195;28;20192;-82
2021/09/01 08:24:24;;;;;;;13.30;11.50;;;;;;;;;;5041541;28;20721;-82
2021/09/01 08:26:50;;;;;;;26.25;12.07;;;;;;;;;;5047375;28;20177;-81
2021/09/01 08:29:17;;;;;;;13.43;10.73;;;;;;;;;;5054254;28;20193;-83
2021/09/01 08:31:43;;;;;;;14.05;10.57;;;;;;;;;;5050623;28;20613;-82
2021/09/01 08:34:09;;;;;;;13.77;10.90;;;;;;;;;;5057983;28;20173;-83
2021/09/01 08:36:35;;;;;;;17.57;9.97;;;;;;;;;;5040851;28;20190;-83
2021/09/01 08:39:01;;;;;;;16.85;12.50;;;;;;;;;;5063249;28;20416;-83
2021/09/01 08:41:28;;;;;;;16.90;12.05;;;;;;;;;;5045089;28;20190;-81
2021/09/01 08:43:59;;;;;;;17.73;11.35;;;;;;;;;;5045908;28;20208;-82
2021/09/01 08:46:25;;;;;;;13.25;9.15;;;;;;;;;;5045705;28;20218;-83
2021/09/01 08:48:52;;;;;;;17.50;10.35;;;;;;;;;;5042857;28;20182;-82
2021/09/01 08:51:18;;;;;;;14.38;10.63;;;;;;;;;;5044199;28;20200;-81
2021/09/01 08:53:44;;;;;;;11.23;9.95;;;;;;;;;;5045901;28;20190;-82
2021/09/01 08:56:10;;;;;;;16.57;10.70;;;;;;;;;;5049639;28;20173;-82
2021/09/01 08:58:36;;;;;;;15.10;11.07;;;;;;;;;;5052834;28;20425;-82
2021/09/01 09:01:03;;;;;;;14.07;10.37;;;;;;;;;;5045516;28;20233;-82
2021/09/01 09:03:29;;;;;;;17.33;10.70;;;;;;;;;;5040020;28;20465;-82
2021/09/01 09:06:02;;;;;;;13.27;10.52;;;;;;;;;;5046985;28;20177;-81
2021/09/01 09:08:31;;;;;;;13.38;10.40;;;;;;;;;;5071286;28;20674;-82
2021/09/01 09:10:57;;;;;;;14.02;10.40;;;;;;;;;;5049617;28;20201;-82
2021/09/01 09:13:34;;;;;;;11.20;10.03;;;;;;;;;;5045718;28;20203;-82
2021/09/01 09:16:11;;;;;;;17.90;10.70;;;;;;;;;;5043771;28;20443;-82
2021/09/01 09:18:38;;;;;;;13.77;10.50;;;;;;;;;;5024783;28;20181;-82
2021/09/01 09:21:19;;;;;;;9.98;8.13;;;;;;;;;;5046252;28;20205;-82
2021/09/01 09:23:46;;;;;;;13.63;9.20;;;;;;;;;;5045362;28;20181;-82
2021/09/01 09:26:22;;;;;;;12.02;8.70;;;;;;;;;;5045321;28;20268;-82
2021/09/01 09:29:06;;;;;;;10.90;8.82;;;;;;;;;;5050259;28;20180;-81
2021/09/01 09:31:32;;;;;;;12.57;9.05;;;;;;;;;;5055631;28;20197;-81
2021/09/01 09:34:08;;;;;;;12.05;9.63;;;;;;;;;;5057018;28;20188;-82
2021/09/01 09:36:35;;;;;;;10.88;9.05;;;;;;;;;;5024710;28;20208;-83
2021/09/01 09:39:01;;;;;;;12.00;9.70;;;;;;;;;;5047266;28;20544;-82
2021/09/01 09:41:30;;;;;;;11.05;8.82;;;;;;;;;;5045973;28;20191;-82
2021/09/01 09:44:00;;;;;;;15.00;10.73;;;;;;;;;;5056094;28;20189;-82
2021/09/01 09:46:27;;;;;;;11.95;9.02;;;;;;;;;;5057880;28;20190;-82
2021/09/01 09:48:53;;;;;;;12.40;10.07;;;;;;;;;;5047007;28;20258;-82
2021/09/01 09:51:41;;;;;;;12.32;8.10;;;;;;;;;;5045065;28;20209;-83
2021/09/01 09:54:14;;;;;;;16.50;10.18;;;;;;;;;;5057215;28;20175;-81
2021/09/01 09:56:42;;;;;;;13.45;9.38;;;;;;;;;;5049401;28;20187;-82
2021/09/01 09:59:08;;;;;;;13.50;9.27;;;;;;;;;;5053903;28;20183;-82
2021/09/01 10:01:34;;;;;;;10.15;9.23;;;;;;;;;;5056763;28;20254;-82
2021/09/01 10:04:00;;;;;;;13.50;9.17;;;;;;;;;;5048331;28;20193;-81
2021/09/01 10:06:26;;;;;;;11.02;9.15;;;;;;;;;;5043121;28;20930;-82
2021/09/01 10:08:53;;;;;;;10.93;8.38;;;;;;;;;;5050165;28;20176;-81
2021/09/01 10:11:20;;;;;;;10.95;8.98;;;;;;;;;;5054950;28;20203;-82
2021/09/01 10:13:47;;;;;;;11.93;9.60;;;;;;;;;;5054324;28;20190;-82
2021/09/01 10:16:26;;;;;;;18.83;9.57;;;;;;;;;;5042307;28;20186;-82
2021/09/01 10:19:13;;;;;;;13.52;9.82;;;;;;;;;;5060314;28;20261;-81
2021/09/01 10:21:40;;;;;;;14.50;9.38;;;;;;;;;;5028613;28;20191;-83
2021/09/01 10:24:19;;;;;;;11.68;8.35;;;;;;;;;;5047762;28;20191;-81
2021/09/01 10:26:59;;;;;;;12.50;8.90;;;;;;;;;;5061024;28;20214;-82
2021/09/01 10:29:43;;;;;;;11.60;9.65;;;;;;;;;;5054381;28;20222;-82
2021/09/01 10:32:19;;;;;;;14.23;9.48;;;;;;;;;;5058500;28;20238;-81
2021/09/01 10:34:45;;;;;;;12.95;8.82;;;;;;;;;;5059919;28;20182;-81
2021/09/01 10:37:31;;;;;;;13.80;9.43;;;;;;;;;;5055293;28;20187;-82
2021/09/01 10:39:57;;;;;;;9.23;8.20;;;;;;;;;;5057570;28;20557;-82
2021/09/01 10:43:00;;;;;;;14.10;11.00;;;;;;;;;;5044038;28;20445;-81
2021/09/01 10:45:33;;;;;;;11.23;8.00;;;;;;;;;;5037437;28;20420;-82
2021/09/01 10:47:59;;;;;;;10.13;8.00;;;;;;;;;;5034705;28;20422;-82
2021/09/01 10:50:31;;;;;;;9.73;7.53;;;;;;;;;;5010802;28;20210;-80
2021/09/01 10:53:10;;;;;;;15.03;8.20;;;;;;;;;;5009723;28;20400;-82
2021/09/01 10:55:54;;;;;;;9.33;8.27;;;;;;;;;;5024325;28;20440;-81
2021/09/01 10:58:24;;;;;;;11.13;7.83;;;;;;;;;;5024023;28;20465;-81
2021/09/01 11:00:57;;;;;;;9.80;7.43;;;;;;;;;;5035618;28;20425;-82
2021/09/01 11:03:30;;;;;;;12.60;7.90;;;;;;;;;;5006016;28;20545;-84
2021/09/01 11:06:09;;;;;;;9.17;7.30;;;;;;;;;;5026837;28;20403;-81
2021/09/01 11:08:35;;;;;;;10.23;8.07;;;;;;;;;;5026249;28;20421;-81
2021/09/01 11:11:01;;;;;;;7.93;7.03;;;;;;;;;;5024241;28;20475;-83
2021/09/01 11:13:39;;;;;;;11.87;8.90;;;;;;;;;;5023667;28;20442;-81
2021/09/01 11:16:16;;;;;;;8.30;7.50;;;;;;;;;;5023945;28;20519;-82
2021/09/01 11:19:18;;;;;;;9.17;7.37;;;;;;;;;;5025233;28;20443;-82
2021/09/01 11:21:45;;;;;;;9.30;8.10;;;;;;;;;;5009197;28;20480;-83
2021/09/01 11:24:12;;;;;;;10.03;8.07;;;;;;;;;;5008653;28;20400;-82
2021/09/01 11:26:38;;;;;;;10.83;9.07;;;;;;;;;;5008542;28;20388;-81
2021/09/01 11:29:06;;;;;;;11.23;9.07;;;;;;;;;;5009915;28;20511;-83
2021/09/01 11:31:33;;;;;;;11.30;8.70;;;;;;;;;;5025353;28;20535;-83
2021/09/01 11:34:00;;;;;;;8.60;7.70;;;;;;;;;;5008589;28;20428;-83
2021/09/01 11:36:29;;;;;;;9.67;8.30;;;;;;;;;;5021661;28;20511;-81
2021/09/01 11:38:56;;;;;;;8.57;6.93;;;;;;;;;;5041182;28;20421;-81
2021/09/01 11:41:23;;;;;;;7.63;6.57;;;;;;;;;;5023576;28;20456;-82
2021/09/01 11:44:00;;;;;;;8.17;6.80;;;;;;;;;;5009963;28;20903;-81
2021/09/01 11:46:27;;;;;;;7.30;6.50;;;;;;;;;;5023440;28;20441;-82
2021/09/01 11:48:53;;;;;;;7.80;6.40;;;;;;;;;;5007511;28;20893;-82
2021/09/01 11:51:22;;;;;;;9.63;6.90;;;;;;;;;;5006538;28;20459;-80
2021/09/01 11:53:49;;;;;;;8.60;7.07;;;;;;;;;;5025772;28;20992;-81
2021/09/01 11:56:15;;;;;;;9.43;7.57;;;;;;;;;;5035535;28;20429;-82
2021/09/01 11:59:00;;;;;;;7.90;6.43;;;;;;;;;;5046457;28;20434;-82
2021/09/01 12:01:27;;;;;;;8.10;6.93;;;;;;;;;;5042514;28;20439;-83
2021/09/01 12:03:53;;;;;;;9.73;8.20;;;;;;;;;;5042152;28;20440;-82
2021/09/01 12:06:33;;;;;;;11.37;6.80;;;;;;;;;;5057408;28;20423;-81
2021/09/01 12:09:02;;;;;;;7.47;6.77;;;;;;;;;;5047310;28;20434;-81
2021/09/01 12:11:30;;;;;;;11.60;7.23;;;;;;;;;;5057118;28;20772;-83
2021/09/01 12:14:01;;;;;;;7.20;6.50;;;;;;;;;;5050952;28;20418;-82
2021/09/01 12:16:27;;;;;;;7.40;6.70;;;;;;;;;;5044560;28;20418;-83
2021/09/01 12:19:07;;;;;;;7.53;5.80;;;;;;;;;;5044938;28;20908;-82
2021/09/01 12:22:00;;;;;;;8.97;7.10;;;;;;;;;;5023913;28;20445;-81
2021/09/01 12:24:28;;;;;;;8.37;6.47;;;;;;;;;;5056582;28;20457;-84
2021/09/01 12:27:05;;;;;;;11.23;7.60;;;;;;;;;;5047120;28;20415;-82
2021/09/01 12:29:33;;;;;;;7.57;6.33;;;;;;;;;;5059488;28;20428;-82
2021/09/01 12:32:07;;;;;;;7.43;6.13;;;;;;;;;;5037108;28;20500;-83
2021/09/01 12:34:35;;;;;;;6.90;6.30;;;;;;;;;;5046200;28;20463;-83
2021/09/01 12:37:08;;;;;;;6.93;6.23;;;;;;;;;;5045165;28;20439;-83
2021/09/01 12:39:51;;;;;;;6.53;5.90;;;;;;;;;;5026268;28;20447;-82
2021/09/01 12:42:21;;;;;;;9.00;5.80;;;;;;;;;;5043219;28;20422;-82
2021/09/01 12:44:54;;;;;;;8.77;5.73;;;;;;;;;;5045357;28;20419;-84
2021/09/01 12:47:21;;;;;;;6.70;5.80;;;;;;;;;;5043839;28;20436;-83
2021/09/01 12:49:48;;;;;;;6.63;6.03;;;;;;;;;;5045857;28;20442;-81
2021/09/01 12:52:15;;;;;;;8.87;5.90;;;;;;;;;;5046746;28;20441;-82
2021/09/01 12:54:42;;;;;;;7.00;6.20;;;;;;;;;;5040490;28;20512;-82
2021/09/01 12:57:11;;;;;;;8.20;6.27;;;;;;;;;;5044284;28;20451;-82
2021/09/01 12:59:37;;;;;;;7.17;6.03;;;;;;;;;;5046749;28;20413;-83
2021/09/01 13:02:04;;;;;;;6.10;5.60;;;;;;;;;;5046780;28;20442;-84
2021/09/01 13:04:30;;;;;;;5.57;5.07;;;;;;;;;;5045726;28;20439;-83
2021/09/01 13:06:56;;;;;;;5.40;4.90;;;;;;;;;;5041511;28;20465;-82
2021/09/01 13:09:23;;;;;;;5.33;4.83;;;;;;;;;;5056608;28;20432;-83
2021/09/01 13:11:49;;;;;;;5.70;5.20;;;;;;;;;;5047018;28;20592;-84
2021/09/01 13:14:15;;;;;;;7.13;5.53;;;;;;;;;;5054002;28;21006;-85
2021/09/01 13:16:43;;;;;;;5.47;4.97;;;;;;;;;;5059312;28;20821;-82
2021/09/01 13:19:09;;;;;;;5.67;4.80;;;;;;;;;;5059740;28;20471;-82
2021/09/01 13:21:37;;;;;;;5.17;4.60;;;;;;;;;;5043526;28;20440;-82
2021/09/01 13:24:07;;;;;;;6.23;5.50;;;;;;;;;;5049804;28;20437;-82
2021/09/01 13:26:33;;;;;;;5.97;5.37;;;;;;;;;;5049306;28;20478;-83
2021/09/01 13:28:59;;;;;;;8.40;5.27;;;;;;;;;;5049582;28;20429;-82
2021/09/01 13:31:31;;;;;;;9.43;6.13;;;;;;;;;;5045035;28;20517;-82
2021/09/01 13:34:01;;;;;;;5.97;5.37;;;;;;;;;;5049249;28;21045;-82
2021/09/01 13:36:27;;;;;;;9.73;5.43;;;;;;;;;;5044964;28;20448;-83
2021/09/01 13:38:53;;;;;;;6.63;5.90;;;;;;;;;;5051407;28;20420;-82
2021/09/01 13:41:19;;;;;;;7.20;5.57;;;;;;;;;;5050013;28;20444;-83
2021/09/01 13:43:46;;;;;;;8.37;5.93;;;;;;;;;;5048772;28;20437;-84
2021/09/01 13:46:12;;;;;;;7.67;5.30;;;;;;;;;;5045960;28;20438;-82
2021/09/01 13:48:40;;;;;;;5.73;5.10;;;;;;;;;;5059207;28;20426;-83
2021/09/01 13:51:06;;;;;;;6.30;5.70;;;;;;;;;;5062272;28;20489;-82
2021/09/01 13:53:32;;;;;;;5.90;5.40;;;;;;;;;;5057132;28;20946;-85
2021/09/01 13:56:03;;;;;;;7.90;5.30;;;;;;;;;;5060559;28;20429;-82
2021/09/01 13:58:29;;;;;;;6.20;5.30;;;;;;;;;;5057198;28;20434;-81
2021/09/01 14:00:57;;;;;;;6.37;5.77;;;;;;;;;;5046041;28;20437;-82
2021/09/01 14:03:23;;;;;;;6.33;4.70;;;;;;;;;;5045018;28;20408;-82
2021/09/01 14:05:49;;;;;;;5.67;5.00;;;;;;;;;;5051601;28;20411;-83
2021/09/01 14:08:15;;;;;;;5.80;5.30;;;;;;;;;;5048495;28;20771;-82
2021/09/01 14:10:42;;;;;;;7.07;6.40;;;;;;;;;;5047643;28;20470;-81
2021/09/01 14:13:08;;;;;;;6.40;5.77;;;;;;;;;;5049144;28;20434;-83
2021/09/01 14:15:34;;;;;;;11.53;5.73;;;;;;;;;;5043766;28;20456;-81
2021/09/01 14:18:01;;;;;;;13.03;5.70;;;;;;;;;;5057929;28;20530;-82
2021/09/01 14:20:27;;;;;;;5.20;4.70;;;;;;;;;;5047976;28;20468;-82
2021/09/01 14:22:54;;;;;;;6.63;5.53;;;;;;;;;;5049184;28;20455;-81
2021/09/01 14:25:20;;;;;;;5.23;4.80;;;;;;;;;;5048438;28;20443;-84
2021/09/01 14:27:49;;;;;;;8.47;6.10;;;;;;;;;;5042577;28;20439;-81
2021/09/01 14:30:15;;;;;;;6.83;6.20;;;;;;;;;;5046319;28;20470;-82